Time;durP1;ratioP1;P1;durP2;ratioP2;P2;SDS_P1;SDS_P2;PMS_P1;PMS_P2;Temp;Humidity;BMP_temperature;BMP_pressure;BME280_temperature;BME280_humidity;BME280_pressure;Samples;Min_cycle;Max_cycle;Signal;HPM_P1;HPM_P2
2022/07/20 00:02:01;;;;;;;9.98;4.30;;;;;;;;;;5050545;28;20389;-69
2022/07/20 00:04:27;;;;;;;11.45;4.68;;;;;;;;;;5055096;28;20033;-69
2022/07/20 00:06:54;;;;;;;10.13;4.20;;;;;;;;;;5048214;28;20050;-69
2022/07/20 00:12:06;;;;;;;9.80;4.03;;;;;;;;;;5051380;28;20163;-68
2022/07/20 00:14:32;;;;;;;10.25;3.80;;;;;;;;;;5031714;28;20036;-69
2022/07/20 00:16:59;;;;;;;9.00;3.92;;;;;;;;;;5048594;28;20039;-69
2022/07/20 00:19:25;;;;;;;10.93;4.50;;;;;;;;;;5050261;28;20066;-69
2022/07/20 00:21:51;;;;;;;11.57;3.88;;;;;;;;;;5045536;28;20111;-69
2022/07/20 00:24:17;;;;;;;7.10;3.70;;;;;;;;;;5049173;28;20078;-69
2022/07/20 00:26:43;;;;;;;11.10;4.03;;;;;;;;;;5035144;28;20032;-69
2022/07/20 00:29:09;;;;;;;9.25;3.38;;;;;;;;;;5053105;28;20365;-69
2022/07/20 00:31:36;;;;;;;11.07;3.80;;;;;;;;;;5054964;28;20164;-69
2022/07/20 00:34:02;;;;;;;8.65;3.85;;;;;;;;;;5049090;28;20025;-69
2022/07/20 00:36:28;;;;;;;10.20;3.55;;;;;;;;;;5052574;28;20052;-69
2022/07/20 00:38:54;;;;;;;10.27;3.60;;;;;;;;;;5029721;28;20044;-70
2022/07/20 00:41:21;;;;;;;8.55;3.60;;;;;;;;;;4998860;28;20036;-69
2022/07/20 00:44:00;;;;;;;9.40;3.75;;;;;;;;;;5024372;28;20563;-70
2022/07/20 00:46:27;;;;;;;7.65;3.20;;;;;;;;;;5041217;28;20055;-69
2022/07/20 00:48:53;;;;;;;9.02;3.83;;;;;;;;;;5060051;28;20435;-69
2022/07/20 00:51:20;;;;;;;9.77;3.70;;;;;;;;;;5042396;28;20870;-71
2022/07/20 00:53:46;;;;;;;9.68;3.72;;;;;;;;;;5053528;28;20028;-70
2022/07/20 00:56:12;;;;;;;9.60;3.50;;;;;;;;;;5057098;28;20039;-69
2022/07/20 00:58:38;;;;;;;8.15;3.55;;;;;;;;;;5056859;28;20051;-69
2022/07/20 01:01:04;;;;;;;9.25;3.75;;;;;;;;;;5055100;28;20033;-69
2022/07/20 01:03:31;;;;;;;12.68;3.40;;;;;;;;;;5059350;28;20163;-70
2022/07/20 01:05:57;;;;;;;7.75;3.33;;;;;;;;;;5055533;28;20028;-70
2022/07/20 01:08:24;;;;;;;7.85;3.70;;;;;;;;;;5060661;28;20453;-70
2022/07/20 01:10:50;;;;;;;9.77;3.80;;;;;;;;;;5058496;28;20109;-70
2022/07/20 01:13:16;;;;;;;9.85;3.75;;;;;;;;;;5035382;28;20031;-70
2022/07/20 01:15:42;;;;;;;9.95;3.30;;;;;;;;;;5050920;28;20480;-70
2022/07/20 01:18:08;;;;;;;9.00;3.50;;;;;;;;;;4995219;28;20024;-70
2022/07/20 01:20:36;;;;;;;6.85;3.00;;;;;;;;;;5019063;28;20485;-70
2022/07/20 01:23:02;;;;;;;7.80;3.30;;;;;;;;;;5011399;28;20028;-70
2022/07/20 01:25:28;;;;;;;9.95;3.65;;;;;;;;;;5016434;28;20797;-70
2022/07/20 01:27:57;;;;;;;8.82;3.33;;;;;;;;;;5010820;28;20466;-70
2022/07/20 01:30:23;;;;;;;8.95;3.25;;;;;;;;;;5019554;28;20035;-70
2022/07/20 01:32:49;;;;;;;8.70;3.35;;;;;;;;;;5014729;28;20032;-70
2022/07/20 01:35:16;;;;;;;9.13;3.30;;;;;;;;;;5015097;28;20426;-70
2022/07/20 01:37:42;;;;;;;7.82;3.33;;;;;;;;;;5012992;28;20032;-70
2022/07/20 01:40:08;;;;;;;10.38;3.15;;;;;;;;;;5036678;28;20047;-70
2022/07/20 01:42:34;;;;;;;6.90;3.08;;;;;;;;;;5049941;28;20067;-70
2022/07/20 01:45:00;;;;;;;11.10;3.33;;;;;;;;;;5025560;28;20481;-70
2022/07/20 01:47:26;;;;;;;8.25;3.28;;;;;;;;;;5047987;28;20013;-70
2022/07/20 01:49:53;;;;;;;7.38;2.80;;;;;;;;;;5041955;28;20051;-70
2022/07/20 01:52:19;;;;;;;8.55;3.25;;;;;;;;;;5046146;28;20296;-70
2022/07/20 01:54:45;;;;;;;7.22;2.70;;;;;;;;;;5045419;28;20036;-70
2022/07/20 01:57:11;;;;;;;7.72;3.00;;;;;;;;;;5049163;28;20078;-70
2022/07/20 01:59:37;;;;;;;11.70;3.38;;;;;;;;;;5048729;28;20607;-70
2022/07/20 02:02:03;;;;;;;7.00;2.83;;;;;;;;;;5022596;28;20479;-70
2022/07/20 02:04:29;;;;;;;9.35;3.00;;;;;;;;;;5045839;28;20651;-69
2022/07/20 02:06:55;;;;;;;9.50;3.10;;;;;;;;;;5047552;28;20326;-70
2022/07/20 02:09:21;;;;;;;10.63;3.42;;;;;;;;;;5052098;28;20459;-69
2022/07/20 02:11:48;;;;;;;7.57;3.05;;;;;;;;;;5044748;28;20151;-69
2022/07/20 02:14:14;;;;;;;9.02;3.08;;;;;;;;;;5045496;28;20085;-69
2022/07/20 02:16:40;;;;;;;7.28;3.13;;;;;;;;;;5030127;28;20028;-70
2022/07/20 02:19:06;;;;;;;9.02;3.03;;;;;;;;;;5039934;28;20399;-69
2022/07/20 02:21:32;;;;;;;7.15;2.97;;;;;;;;;;5048437;28;20091;-70
2022/07/20 02:23:58;;;;;;;8.25;3.15;;;;;;;;;;5043889;28;20035;-70
2022/07/20 02:26:24;;;;;;;6.50;3.10;;;;;;;;;;5028324;28;20413;-70
2022/07/20 02:28:51;;;;;;;9.10;3.00;;;;;;;;;;5045544;28;20523;-70
2022/07/20 02:31:21;;;;;;;8.93;3.20;;;;;;;;;;5044582;28;20490;-70
2022/07/20 02:33:48;;;;;;;7.60;3.00;;;;;;;;;;5047398;28;20545;-70
2022/07/20 02:36:14;;;;;;;7.53;3.10;;;;;;;;;;5051772;28;20019;-69
2022/07/20 02:38:40;;;;;;;6.55;2.97;;;;;;;;;;5046997;28;20028;-69
2022/07/20 02:41:06;;;;;;;7.03;3.03;;;;;;;;;;5015458;28;20044;-69
2022/07/20 02:43:33;;;;;;;8.20;2.88;;;;;;;;;;5038612;28;20455;-69
2022/07/20 02:45:59;;;;;;;8.40;3.15;;;;;;;;;;5049381;28;20043;-69
2022/07/20 02:48:25;;;;;;;7.40;3.03;;;;;;;;;;5052966;28;20123;-69
2022/07/20 02:50:53;;;;;;;8.48;3.08;;;;;;;;;;5013472;28;20060;-70
2022/07/20 02:53:19;;;;;;;9.70;2.88;;;;;;;;;;5019274;28;20018;-69
2022/07/20 02:55:45;;;;;;;7.45;3.10;;;;;;;;;;5014548;28;20169;-69
2022/07/20 02:58:12;;;;;;;8.43;3.75;;;;;;;;;;5015713;28;20048;-69
2022/07/20 03:00:39;;;;;;;8.88;3.50;;;;;;;;;;5016668;28;20041;-69
2022/07/20 03:03:05;;;;;;;7.53;3.08;;;;;;;;;;5015833;28;20041;-69
2022/07/20 03:05:31;;;;;;;7.88;3.50;;;;;;;;;;5019637;28;20048;-70
2022/07/20 03:07:58;;;;;;;6.35;3.20;;;;;;;;;;5013883;28;20471;-70
2022/07/20 03:10:24;;;;;;;11.05;3.42;;;;;;;;;;5016922;28;20091;-70
2022/07/20 03:12:50;;;;;;;9.13;3.30;;;;;;;;;;5012792;28;20030;-70
2022/07/20 03:15:16;;;;;;;7.93;3.03;;;;;;;;;;5016232;28;20013;-69
2022/07/20 03:17:44;;;;;;;8.55;3.15;;;;;;;;;;4981652;28;20385;-70
2022/07/20 03:20:12;;;;;;;8.32;3.30;;;;;;;;;;4981476;28;20025;-70
2022/07/20 03:22:38;;;;;;;8.13;3.17;;;;;;;;;;4975034;28;20047;-69
2022/07/20 03:25:04;;;;;;;10.25;3.30;;;;;;;;;;4972510;28;20262;-69
2022/07/20 03:27:30;;;;;;;7.50;3.10;;;;;;;;;;4975040;28;20616;-69
2022/07/20 03:29:56;;;;;;;9.82;3.00;;;;;;;;;;4972923;28;20462;-69
2022/07/20 03:32:22;;;;;;;6.35;2.70;;;;;;;;;;4975627;28;20505;-70
2022/07/20 03:34:49;;;;;;;9.63;2.60;;;;;;;;;;4971780;28;20040;-69
2022/07/20 03:37:15;;;;;;;7.85;3.20;;;;;;;;;;4978128;28;20169;-70
2022/07/20 03:39:41;;;;;;;9.00;3.30;;;;;;;;;;4991569;28;20057;-70
2022/07/20 03:42:07;;;;;;;9.50;3.13;;;;;;;;;;5005372;28;20111;-70
2022/07/20 03:44:33;;;;;;;7.43;3.00;;;;;;;;;;5013526;28;20036;-69
2022/07/20 03:47:00;;;;;;;7.30;3.13;;;;;;;;;;5009076;28;20435;-69
2022/07/20 03:49:26;;;;;;;9.45;3.08;;;;;;;;;;5022524;28;20059;-69
2022/07/20 03:51:52;;;;;;;8.65;3.10;;;;;;;;;;5042407;28;20040;-69
2022/07/20 03:54:18;;;;;;;7.65;3.30;;;;;;;;;;5056653;28;20032;-70
2022/07/20 03:56:44;;;;;;;6.80;3.20;;;;;;;;;;5046938;28;20098;-69
2022/07/20 03:59:11;;;;;;;7.55;3.30;;;;;;;;;;5050249;28;20350;-69
2022/07/20 04:01:38;;;;;;;7.15;3.00;;;;;;;;;;5047139;28;20040;-69
2022/07/20 04:04:04;;;;;;;7.55;3.10;;;;;;;;;;5044853;28;20040;-69
2022/07/20 04:06:30;;;;;;;6.93;3.22;;;;;;;;;;5052721;28;20032;-69
2022/07/20 04:08:56;;;;;;;8.60;2.83;;;;;;;;;;5045386;28;20977;-70
2022/07/20 04:11:23;;;;;;;8.73;3.20;;;;;;;;;;5045032;28;20043;-69
2022/07/20 04:13:49;;;;;;;8.00;3.03;;;;;;;;;;5045447;28;20032;-69
2022/07/20 04:16:15;;;;;;;8.65;3.28;;;;;;;;;;5033511;28;20024;-69
2022/07/20 04:18:41;;;;;;;9.38;3.00;;;;;;;;;;5050586;28;20055;-69
2022/07/20 04:21:07;;;;;;;6.72;2.90;;;;;;;;;;5042491;28;20032;-69
2022/07/20 04:23:34;;;;;;;6.65;2.72;;;;;;;;;;5046550;28;20131;-70
2022/07/20 04:26:00;;;;;;;9.60;3.20;;;;;;;;;;5046049;28;20055;-69
2022/07/20 04:28:26;;;;;;;8.57;3.55;;;;;;;;;;5029471;28;20025;-69
2022/07/20 04:30:52;;;;;;;7.18;3.58;;;;;;;;;;5028939;28;20647;-70
2022/07/20 04:33:18;;;;;;;9.13;3.72;;;;;;;;;;5029713;28;20102;-69
2022/07/20 04:35:45;;;;;;;9.20;3.45;;;;;;;;;;5026630;28;20055;-70
2022/07/20 04:38:14;;;;;;;8.43;3.75;;;;;;;;;;5051400;28;20032;-70
2022/07/20 04:40:40;;;;;;;10.18;4.05;;;;;;;;;;5026660;28;20093;-70
2022/07/20 04:43:07;;;;;;;11.63;3.83;;;;;;;;;;5027170;28;20040;-70
2022/07/20 04:45:33;;;;;;;9.15;3.40;;;;;;;;;;5052479;28;20040;-70
2022/07/20 04:47:59;;;;;;;8.75;3.60;;;;;;;;;;5050749;28;20510;-71
2022/07/20 04:50:25;;;;;;;9.20;3.55;;;;;;;;;;5055752;28;20718;-70
2022/07/20 04:52:52;;;;;;;8.98;3.63;;;;;;;;;;5033045;28;20036;-69
2022/07/20 04:55:18;;;;;;;9.07;3.78;;;;;;;;;;5054545;28;20541;-70
2022/07/20 04:57:44;;;;;;;8.63;3.10;;;;;;;;;;5051170;28;20035;-69
2022/07/20 05:00:11;;;;;;;10.88;3.95;;;;;;;;;;5050409;28;20029;-70
2022/07/20 05:02:37;;;;;;;8.52;3.55;;;;;;;;;;5052518;28;20032;-69
2022/07/20 05:05:03;;;;;;;10.43;3.90;;;;;;;;;;5049486;28;20034;-70
2022/07/20 05:07:29;;;;;;;10.65;4.03;;;;;;;;;;5053723;28;20827;-70
2022/07/20 05:09:55;;;;;;;11.77;4.30;;;;;;;;;;5051484;28;20434;-70
2022/07/20 05:12:21;;;;;;;16.20;4.70;;;;;;;;;;5034480;28;20630;-69
2022/07/20 05:14:48;;;;;;;8.50;3.70;;;;;;;;;;5048126;28;20210;-71
2022/07/20 05:17:14;;;;;;;13.35;4.10;;;;;;;;;;5026087;28;20109;-71
2022/07/20 05:19:40;;;;;;;11.95;4.03;;;;;;;;;;5013375;28;20093;-71
2022/07/20 05:22:06;;;;;;;9.68;3.60;;;;;;;;;;5005674;28;20036;-71
2022/07/20 05:24:32;;;;;;;8.95;3.50;;;;;;;;;;5018606;28;20089;-71
2022/07/20 05:26:58;;;;;;;8.52;3.30;;;;;;;;;;5011841;28;20036;-70
2022/07/20 05:29:24;;;;;;;10.45;3.20;;;;;;;;;;5015329;28;20754;-69
2022/07/20 05:31:50;;;;;;;6.80;3.17;;;;;;;;;;5011527;28;20448;-69
2022/07/20 05:34:17;;;;;;;13.15;3.65;;;;;;;;;;5016942;28;20429;-69
2022/07/20 05:36:43;;;;;;;6.78;3.20;;;;;;;;;;5016279;28;20051;-69
2022/07/20 05:39:09;;;;;;;10.23;3.05;;;;;;;;;;5015944;28;20105;-69
2022/07/20 05:41:36;;;;;;;8.95;3.00;;;;;;;;;;5047166;28;20135;-69
2022/07/20 05:44:02;;;;;;;12.75;3.45;;;;;;;;;;5028511;28;20028;-69
2022/07/20 05:46:28;;;;;;;11.98;3.95;;;;;;;;;;5047770;28;20028;-71
2022/07/20 05:48:54;;;;;;;12.48;4.90;;;;;;;;;;5044858;28;20422;-70
2022/07/20 05:51:21;;;;;;;13.45;5.28;;;;;;;;;;5006381;28;20383;-70
2022/07/20 05:53:47;;;;;;;15.80;5.63;;;;;;;;;;5002278;28;20589;-70
2022/07/20 05:56:13;;;;;;;15.48;5.70;;;;;;;;;;5054370;28;20075;-70
2022/07/20 05:58:39;;;;;;;16.02;5.43;;;;;;;;;;5032454;28;20031;-70
2022/07/20 06:01:05;;;;;;;17.70;5.93;;;;;;;;;;5048946;28;20032;-70
2022/07/20 06:03:31;;;;;;;15.43;5.22;;;;;;;;;;5052228;28;20059;-70
2022/07/20 06:05:57;;;;;;;13.93;5.38;;;;;;;;;;5030293;28;20058;-72
2022/07/20 06:08:24;;;;;;;15.38;4.80;;;;;;;;;;5034317;28;20032;-69
2022/07/20 06:10:50;;;;;;;14.57;4.93;;;;;;;;;;5045438;28;20714;-70
2022/07/20 06:13:16;;;;;;;13.25;4.93;;;;;;;;;;5055690;28;20037;-71
2022/07/20 06:15:42;;;;;;;12.57;4.47;;;;;;;;;;5050797;28;20029;-71
2022/07/20 06:18:09;;;;;;;13.45;4.20;;;;;;;;;;5031764;28;20485;-71
2022/07/20 06:20:38;;;;;;;18.02;5.05;;;;;;;;;;5048666;28;20043;-71
2022/07/20 06:23:04;;;;;;;15.48;5.20;;;;;;;;;;5050932;28;20028;-70
2022/07/20 06:25:30;;;;;;;13.10;4.57;;;;;;;;;;5055713;28;20032;-70
2022/07/20 06:27:58;;;;;;;12.27;4.20;;;;;;;;;;5030312;28;20105;-71
2022/07/20 06:30:24;;;;;;;12.95;3.63;;;;;;;;;;5022018;28;20462;-71
2022/07/20 06:32:51;;;;;;;8.15;3.42;;;;;;;;;;4999131;28;20131;-71
2022/07/20 06:35:17;;;;;;;7.78;3.00;;;;;;;;;;5019529;28;20028;-71
2022/07/20 06:37:43;;;;;;;8.13;3.15;;;;;;;;;;5019169;28;20163;-71
2022/07/20 06:40:11;;;;;;;7.75;3.03;;;;;;;;;;5013506;28;20773;-72
2022/07/20 06:42:37;;;;;;;8.55;2.70;;;;;;;;;;5021147;28;20060;-70
2022/07/20 06:45:04;;;;;;;12.70;3.30;;;;;;;;;;4997038;28;20411;-70
2022/07/20 06:47:30;;;;;;;10.07;3.35;;;;;;;;;;4997154;28;20603;-69
2022/07/20 06:49:56;;;;;;;13.32;3.20;;;;;;;;;;5012433;28;20111;-69
2022/07/20 06:52:22;;;;;;;14.50;3.90;;;;;;;;;;5015025;28;20053;-70
2022/07/20 06:54:48;;;;;;;12.98;3.85;;;;;;;;;;5014140;28;20517;-70
2022/07/20 06:57:14;;;;;;;10.95;4.00;;;;;;;;;;4998638;28;20724;-70
2022/07/20 06:59:41;;;;;;;23.63;4.55;;;;;;;;;;4997800;28;20817;-69
2022/07/20 07:02:08;;;;;;;14.95;3.80;;;;;;;;;;5013144;28;20046;-71
2022/07/20 07:04:34;;;;;;;12.88;3.83;;;;;;;;;;5004415;28;20062;-70
2022/07/20 07:07:02;;;;;;;9.73;3.17;;;;;;;;;;5053676;28;20275;-70
2022/07/20 07:09:29;;;;;;;17.45;4.38;;;;;;;;;;5034914;28;20047;-70
2022/07/20 07:11:55;;;;;;;17.88;5.50;;;;;;;;;;5055704;28;20066;-71
2022/07/20 07:14:21;;;;;;;10.52;5.07;;;;;;;;;;5052659;28;20028;-69
2022/07/20 07:16:48;;;;;;;12.43;4.05;;;;;;;;;;5032572;28;20533;-71
2022/07/20 07:19:14;;;;;;;9.57;4.75;;;;;;;;;;5055404;28;20428;-70
2022/07/20 07:21:40;;;;;;;9.52;3.67;;;;;;;;;;5053350;28;20029;-71
2022/07/20 07:24:06;;;;;;;8.23;3.50;;;;;;;;;;5048950;28;20044;-70
2022/07/20 07:26:32;;;;;;;11.25;5.82;;;;;;;;;;5056146;28;20114;-71
2022/07/20 07:28:58;;;;;;;13.43;5.40;;;;;;;;;;5050510;28;20139;-69
2022/07/20 07:31:24;;;;;;;9.20;3.58;;;;;;;;;;5057092;28;20157;-69
2022/07/20 07:33:51;;;;;;;10.23;4.15;;;;;;;;;;5053995;28;20043;-71
2022/07/20 07:36:17;;;;;;;9.35;3.83;;;;;;;;;;5056227;28;20071;-71
2022/07/20 07:38:43;;;;;;;8.02;3.35;;;;;;;;;;5056317;28;20561;-71
2022/07/20 07:41:09;;;;;;;8.18;3.03;;;;;;;;;;5054441;28;20476;-69
2022/07/20 07:43:35;;;;;;;8.63;3.00;;;;;;;;;;5056494;28;20093;-70
2022/07/20 07:46:02;;;;;;;9.93;2.97;;;;;;;;;;5054702;28;20165;-70
2022/07/20 07:48:28;;;;;;;9.02;3.35;;;;;;;;;;5039543;28;20648;-70
2022/07/20 07:50:54;;;;;;;7.43;3.15;;;;;;;;;;5050481;28;20044;-70
2022/07/20 07:53:20;;;;;;;12.05;3.20;;;;;;;;;;5058656;28;20032;-70
2022/07/20 07:55:46;;;;;;;10.57;2.97;;;;;;;;;;5051528;28;20028;-70
2022/07/20 07:58:12;;;;;;;8.40;2.78;;;;;;;;;;5056421;28;20199;-71
2022/07/20 08:00:39;;;;;;;8.18;2.40;;;;;;;;;;5057531;28;20827;-70
2022/07/20 08:03:05;;;;;;;8.18;2.88;;;;;;;;;;5052941;28;20028;-70
2022/07/20 08:05:32;;;;;;;7.55;2.45;;;;;;;;;;5055550;28;20060;-70
2022/07/20 08:07:58;;;;;;;8.18;2.83;;;;;;;;;;5051676;28;20035;-71
2022/07/20 08:10:25;;;;;;;14.93;3.67;;;;;;;;;;5055187;28;20620;-71
2022/07/20 08:12:51;;;;;;;7.10;2.33;;;;;;;;;;5030329;28;20030;-70
2022/07/20 08:15:17;;;;;;;10.57;2.75;;;;;;;;;;5049269;28;20236;-71
2022/07/20 08:17:47;;;;;;;10.82;2.50;;;;;;;;;;5052802;28;20028;-71
2022/07/20 08:20:13;;;;;;;8.65;2.60;;;;;;;;;;5055733;28;20025;-70
2022/07/20 08:22:39;;;;;;;8.18;2.60;;;;;;;;;;5055825;28;20852;-69
2022/07/20 08:25:06;;;;;;;10.18;2.50;;;;;;;;;;5050772;28;20036;-69
2022/07/20 08:27:32;;;;;;;7.85;2.50;;;;;;;;;;5048304;28;20040;-69
2022/07/20 08:29:59;;;;;;;6.15;2.40;;;;;;;;;;5055229;28;20503;-69
2022/07/20 08:32:25;;;;;;;6.72;2.40;;;;;;;;;;5057201;28;20020;-70
2022/07/20 08:34:51;;;;;;;8.38;2.55;;;;;;;;;;5052353;28;20119;-69
2022/07/20 08:37:18;;;;;;;9.13;2.60;;;;;;;;;;5039887;28;20141;-69
2022/07/20 08:39:44;;;;;;;7.18;2.40;;;;;;;;;;5039638;28;20531;-70
2022/07/20 08:42:10;;;;;;;7.22;2.50;;;;;;;;;;5054514;28;20044;-70
2022/07/20 08:44:37;;;;;;;7.90;2.20;;;;;;;;;;5061848;28;20047;-68
2022/07/20 08:47:03;;;;;;;9.80;3.03;;;;;;;;;;5034466;28;20407;-69
2022/07/20 08:49:29;;;;;;;8.80;2.70;;;;;;;;;;5058998;28;20176;-69
2022/07/20 08:51:55;;;;;;;6.82;2.47;;;;;;;;;;5053232;28;20217;-68
2022/07/20 08:54:21;;;;;;;7.32;2.50;;;;;;;;;;5057877;28;20044;-69
2022/07/20 08:56:47;;;;;;;9.68;2.58;;;;;;;;;;5057932;28;20294;-69
2022/07/20 08:59:13;;;;;;;9.52;2.60;;;;;;;;;;5061261;28;20029;-68
2022/07/20 09:02:02;;;;;;;7.20;2.30;;;;;;;;;;5066000;28;20047;-68
2022/07/20 09:04:28;;;;;;;6.85;2.53;;;;;;;;;;5060221;28;20051;-70
2022/07/20 09:06:54;;;;;;;8.18;2.60;;;;;;;;;;5063038;28;20395;-69
2022/07/20 09:09:21;;;;;;;6.85;2.30;;;;;;;;;;5059313;28;20037;-68
2022/07/20 09:11:48;;;;;;;6.95;2.58;;;;;;;;;;5060309;28;20266;-69
2022/07/20 09:14:16;;;;;;;7.00;2.45;;;;;;;;;;5063458;28;20028;-68
2022/07/20 09:16:50;;;;;;;6.38;2.47;;;;;;;;;;5066112;28;20041;-70
2022/07/20 09:19:16;;;;;;;7.22;2.20;;;;;;;;;;5059440;28;20036;-68
2022/07/20 09:21:43;;;;;;;9.10;2.47;;;;;;;;;;5062990;28;20517;-71
2022/07/20 09:24:10;;;;;;;8.07;2.58;;;;;;;;;;5037016;28;20112;-70
2022/07/20 09:26:36;;;;;;;8.35;2.30;;;;;;;;;;5058349;28;20223;-70
2022/07/20 09:29:04;;;;;;;6.00;2.08;;;;;;;;;;5058043;28;20804;-69
2022/07/20 09:31:33;;;;;;;9.30;2.20;;;;;;;;;;5047294;28;20076;-69
2022/07/20 09:33:59;;;;;;;6.38;2.30;;;;;;;;;;5057341;28;20028;-67
2022/07/20 09:36:26;;;;;;;7.13;2.40;;;;;;;;;;5055487;28;20028;-68
2022/07/20 09:38:53;;;;;;;7.70;2.30;;;;;;;;;;5050666;28;20115;-70
2022/07/20 09:41:22;;;;;;;5.65;2.17;;;;;;;;;;5032104;28;20036;-69
2022/07/20 09:43:48;;;;;;;8.98;2.45;;;;;;;;;;5051723;28;20063;-70
2022/07/20 09:46:15;;;;;;;6.22;2.45;;;;;;;;;;5051903;28;20047;-69
2022/07/20 09:48:46;;;;;;;10.73;2.42;;;;;;;;;;5056362;28;20348;-70
2022/07/20 09:51:19;;;;;;;8.48;2.60;;;;;;;;;;5050711;28;20090;-69
2022/07/20 09:53:45;;;;;;;8.82;2.30;;;;;;;;;;5053272;28;20159;-68
2022/07/20 09:56:11;;;;;;;8.35;2.53;;;;;;;;;;5034856;28;20097;-70
2022/07/20 09:58:38;;;;;;;9.38;2.08;;;;;;;;;;5039730;28;20509;-70
2022/07/20 10:01:04;;;;;;;7.60;2.40;;;;;;;;;;5052878;28;20655;-70
2022/07/20 10:03:30;;;;;;;6.78;2.30;;;;;;;;;;5040118;28;20574;-70
2022/07/20 10:05:56;;;;;;;7.28;2.50;;;;;;;;;;5053322;28;20032;-70
2022/07/20 10:08:24;;;;;;;6.97;2.63;;;;;;;;;;5056365;28;20484;-69
2022/07/20 10:10:50;;;;;;;6.07;2.17;;;;;;;;;;5049721;28;20337;-70
2022/07/20 10:13:16;;;;;;;5.63;2.40;;;;;;;;;;5038783;28;20471;-69
2022/07/20 10:15:59;;;;;;;5.28;2.30;;;;;;;;;;5055126;28;20070;-69
2022/07/20 10:18:26;;;;;;;9.95;2.88;;;;;;;;;;5041926;28;20024;-69
2022/07/20 10:20:52;;;;;;;12.93;3.03;;;;;;;;;;5052353;28;20051;-67
2022/07/20 10:23:25;;;;;;;11.05;3.00;;;;;;;;;;5059005;28;20527;-70
2022/07/20 10:25:51;;;;;;;8.75;2.78;;;;;;;;;;5053600;28;20035;-70
2022/07/20 10:28:23;;;;;;;6.80;2.40;;;;;;;;;;5058348;28;20020;-70
2022/07/20 10:31:02;;;;;;;7.45;2.47;;;;;;;;;;5054173;28;20570;-71
2022/07/20 10:33:28;;;;;;;7.53;2.72;;;;;;;;;;5057274;28;20036;-70
2022/07/20 10:38:39;;;;;;;10.38;2.60;;;;;;;;;;5058362;28;20082;-71
2022/07/20 10:44:13;;;;;;;10.40;2.67;;;;;;;;;;5053189;28;20048;-71
2022/07/20 10:46:39;;;;;;;6.20;2.13;;;;;;;;;;5056260;28;20103;-69
2022/07/20 10:49:05;;;;;;;6.32;2.10;;;;;;;;;;5035569;28;21316;-70
2022/07/20 10:51:31;;;;;;;7.88;2.30;;;;;;;;;;5040671;28;20054;-69
2022/07/20 10:54:17;;;;;;;6.60;2.30;;;;;;;;;;5053013;28;20495;-70
2022/07/20 10:56:43;;;;;;;7.07;2.03;;;;;;;;;;5057250;28;20460;-70
2022/07/20 10:59:10;;;;;;;6.47;2.33;;;;;;;;;;5059729;28;20173;-69
2022/07/20 11:01:37;;;;;;;6.03;2.33;;;;;;;;;;5035697;28;20032;-68
2022/07/20 11:04:03;;;;;;;4.43;1.90;;;;;;;;;;5036181;28;20129;-69
2022/07/20 11:06:29;;;;;;;6.78;2.20;;;;;;;;;;5063379;28;20040;-69
2022/07/20 11:08:57;;;;;;;8.77;2.25;;;;;;;;;;5050758;28;20139;-69
2022/07/20 11:11:24;;;;;;;8.10;2.22;;;;;;;;;;5059311;28;20024;-69
2022/07/20 11:13:50;;;;;;;6.95;2.20;;;;;;;;;;5051102;28;20039;-70
2022/07/20 11:16:20;;;;;;;5.97;2.13;;;;;;;;;;5037714;28;20020;-69
2022/07/20 11:18:47;;;;;;;6.28;1.83;;;;;;;;;;5037642;28;20494;-68
2022/07/20 11:21:13;;;;;;;6.10;2.20;;;;;;;;;;5054576;28;20414;-71
2022/07/20 11:23:43;;;;;;;8.23;2.30;;;;;;;;;;5034850;28;20059;-70
2022/07/20 11:26:09;;;;;;;7.82;2.58;;;;;;;;;;5052935;28;20025;-70
2022/07/20 11:28:37;;;;;;;8.63;2.08;;;;;;;;;;5053693;28;20119;-70
2022/07/20 11:31:05;;;;;;;7.95;1.98;;;;;;;;;;5050903;28;20043;-73
2022/07/20 11:33:38;;;;;;;11.95;3.65;;;;;;;;;;5058914;28;20047;-70
2022/07/20 11:36:06;;;;;;;8.60;2.20;;;;;;;;;;5052329;28;22572;-70
2022/07/20 11:38:36;;;;;;;6.95;2.00;;;;;;;;;;5056334;28;20087;-71
2022/07/20 11:41:03;;;;;;;7.93;2.30;;;;;;;;;;5049987;28;20094;-68
2022/07/20 11:43:29;;;;;;;5.82;1.80;;;;;;;;;;5054221;28;20652;-68
2022/07/20 11:46:08;;;;;;;6.30;2.15;;;;;;;;;;5054419;28;20032;-69
2022/07/20 11:48:34;;;;;;;8.73;2.65;;;;;;;;;;5057725;28;20040;-69
2022/07/20 11:51:00;;;;;;;10.75;2.35;;;;;;;;;;5056215;28;20531;-69
2022/07/20 11:53:26;;;;;;;8.20;2.47;;;;;;;;;;5058457;28;20028;-70
2022/07/20 11:55:53;;;;;;;6.60;2.10;;;;;;;;;;5057290;28;20024;-69
2022/07/20 11:58:30;;;;;;;6.50;1.80;;;;;;;;;;5036729;28;20036;-69
2022/07/20 12:00:56;;;;;;;6.75;2.13;;;;;;;;;;5050320;28;20032;-69
2022/07/20 12:03:28;;;;;;;7.55;2.00;;;;;;;;;;5036553;28;20024;-70
2022/07/20 12:05:54;;;;;;;8.07;2.15;;;;;;;;;;5037874;28;20024;-70
2022/07/20 12:08:21;;;;;;;6.05;1.80;;;;;;;;;;5040822;28;20041;-69
2022/07/20 12:10:48;;;;;;;6.88;1.90;;;;;;;;;;5056055;28;20037;-70
2022/07/20 12:13:16;;;;;;;9.10;2.00;;;;;;;;;;5056850;28;20075;-71
2022/07/20 12:15:51;;;;;;;5.75;1.85;;;;;;;;;;5054343;28;20540;-69
2022/07/20 12:18:31;;;;;;;5.47;1.67;;;;;;;;;;5053294;28;20035;-69
2022/07/20 12:20:59;;;;;;;7.00;1.98;;;;;;;;;;5053559;28;20175;-69
2022/07/20 12:23:26;;;;;;;5.40;1.60;;;;;;;;;;5041216;28;20034;-69
2022/07/20 12:25:52;;;;;;;6.20;1.58;;;;;;;;;;5057223;28;20031;-71
2022/07/20 12:28:32;;;;;;;3.80;1.60;;;;;;;;;;5056594;28;20044;-70
2022/07/20 12:31:14;;;;;;;5.78;1.80;;;;;;;;;;5048527;28;20055;-71
2022/07/20 12:33:59;;;;;;;8.63;1.60;;;;;;;;;;5051956;28;20061;-71
2022/07/20 12:36:45;;;;;;;6.97;1.60;;;;;;;;;;5056964;28;20443;-71
2022/07/20 12:39:13;;;;;;;9.15;1.77;;;;;;;;;;5049369;28;20031;-71
2022/07/20 12:41:39;;;;;;;7.45;1.70;;;;;;;;;;5057998;28;20031;-71
2022/07/20 12:44:24;;;;;;;6.80;1.90;;;;;;;;;;5054893;28;20040;-71
2022/07/20 12:46:51;;;;;;;4.80;1.60;;;;;;;;;;5035185;28;20374;-72
2022/07/20 12:49:25;;;;;;;5.32;1.50;;;;;;;;;;5051066;28;20366;-71
2022/07/20 12:51:51;;;;;;;;;;;;;;;;;;5049147;28;20032;-71
2022/07/20 12:54:18;;;;;;;7.88;2.00;;;;;;;;;;5050737;28;19919;-71
2022/07/20 12:56:45;;;;;;;5.40;1.85;;;;;;;;;;5053767;28;20032;-71
2022/07/20 12:59:11;;;;;;;4.28;1.48;;;;;;;;;;5055688;28;20030;-71
2022/07/20 13:01:38;;;;;;;5.85;1.67;;;;;;;;;;5035678;28;20383;-71
2022/07/20 13:04:05;;;;;;;7.05;1.70;;;;;;;;;;5017507;28;23491;-71
2022/07/20 13:06:34;;;;;;;4.45;1.50;;;;;;;;;;5054880;28;20037;-71
2022/07/20 13:09:00;;;;;;;6.20;1.50;;;;;;;;;;5047281;28;20036;-70
2022/07/20 13:11:26;;;;;;;5.70;1.70;;;;;;;;;;5053187;28;20036;-72
2022/07/20 13:13:53;;;;;;;6.13;1.70;;;;;;;;;;5049973;28;20020;-70
2022/07/20 13:16:19;;;;;;;7.05;1.60;;;;;;;;;;5033586;28;20060;-70
2022/07/20 13:18:45;;;;;;;4.80;1.52;;;;;;;;;;5049445;28;20170;-71
2022/07/20 13:21:12;;;;;;;6.40;1.60;;;;;;;;;;5031106;28;20498;-71
2022/07/20 13:23:38;;;;;;;6.15;1.50;;;;;;;;;;5032388;28;20028;-71
2022/07/20 13:26:05;;;;;;;4.22;1.38;;;;;;;;;;5048076;28;20087;-71
2022/07/20 13:28:31;;;;;;;6.22;1.88;;;;;;;;;;5051177;28;20070;-71
2022/07/20 13:30:57;;;;;;;4.57;1.52;;;;;;;;;;5039537;28;20040;-71
2022/07/20 13:33:24;;;;;;;5.57;1.73;;;;;;;;;;5049957;28;20098;-71
2022/07/20 13:35:50;;;;;;;7.00;1.58;;;;;;;;;;5029763;28;20621;-71
2022/07/20 13:38:16;;;;;;;5.63;1.30;;;;;;;;;;5054029;28;20052;-70
2022/07/20 13:40:43;;;;;;;6.20;1.67;;;;;;;;;;5054264;28;20097;-71
2022/07/20 13:43:09;;;;;;;4.15;1.50;;;;;;;;;;5030416;28;20048;-70
2022/07/20 13:45:35;;;;;;;6.68;1.30;;;;;;;;;;5037366;28;20043;-71
2022/07/20 13:48:02;;;;;;;4.65;1.50;;;;;;;;;;5051496;28;20025;-70
2022/07/20 13:50:29;;;;;;;6.25;1.58;;;;;;;;;;5052335;28;20044;-71
2022/07/20 13:52:55;;;;;;;6.10;1.40;;;;;;;;;;5029591;28;20060;-70
2022/07/20 13:55:21;;;;;;;5.55;1.60;;;;;;;;;;5034254;28;20040;-70
2022/07/20 13:57:47;;;;;;;6.20;1.65;;;;;;;;;;5051073;28;20055;-71
2022/07/20 14:00:13;;;;;;;3.97;1.20;;;;;;;;;;5052343;28;20028;-71
2022/07/20 14:02:40;;;;;;;3.78;1.50;;;;;;;;;;5053127;28;20064;-71
2022/07/20 14:05:06;;;;;;;5.38;1.50;;;;;;;;;;5047031;28;20032;-71
2022/07/20 14:07:33;;;;;;;4.55;1.27;;;;;;;;;;5052457;28;20054;-72
2022/07/20 14:09:59;;;;;;;5.75;1.70;;;;;;;;;;5045304;28;20333;-71
2022/07/20 14:12:25;;;;;;;3.58;1.50;;;;;;;;;;5053851;28;20090;-71
2022/07/20 14:14:51;;;;;;;4.70;1.40;;;;;;;;;;5038120;28;20272;-71
2022/07/20 14:17:17;;;;;;;7.25;1.73;;;;;;;;;;5055928;28;20032;-71
2022/07/20 14:19:43;;;;;;;4.63;1.42;;;;;;;;;;5055134;28;20032;-71
2022/07/20 14:22:09;;;;;;;5.55;1.63;;;;;;;;;;5056733;28;20571;-72
2022/07/20 14:24:36;;;;;;;6.63;1.60;;;;;;;;;;5054173;28;20020;-71
2022/07/20 14:27:02;;;;;;;6.80;1.60;;;;;;;;;;5046724;28;20106;-70
2022/07/20 14:29:28;;;;;;;5.05;1.60;;;;;;;;;;5034600;28;20028;-70
2022/07/20 14:31:54;;;;;;;8.75;1.88;;;;;;;;;;5046736;28;20395;-70
2022/07/20 14:34:21;;;;;;;4.50;1.38;;;;;;;;;;5052952;28;20032;-70
2022/07/20 14:36:48;;;;;;;5.60;1.65;;;;;;;;;;5054087;28;20392;-71
2022/07/20 14:39:15;;;;;;;6.03;1.35;;;;;;;;;;5053122;28;20029;-71
2022/07/20 14:41:41;;;;;;;5.40;1.30;;;;;;;;;;5057584;28;20036;-71
2022/07/20 14:44:09;;;;;;;5.38;1.38;;;;;;;;;;5052249;28;20024;-71
2022/07/20 14:46:36;;;;;;;5.60;1.40;;;;;;;;;;5051480;28;20035;-69
2022/07/20 14:49:02;;;;;;;4.05;1.30;;;;;;;;;;5051970;28;20040;-70